Terminal Aerodrome Forecast
Issued by NWS

Current Version | Previous Version | Text Only | Print | Product List | Glossary On
Versions: 1 2 3 4 5 6 7 8 9 10 11 12
000
FTUS41 KLWX 271737
TAFMTN
TAF
KMTN 271737Z 2718/2818 13008KT P6SM FEW080
     FM272300 17010KT P6SM VCTS SCT040CB
     FM280200 18003KT P6SM FEW040
     FM280600 18006KT 3SM BR SKC=

USA.gov is the U.S. government's official web portal to all federal, state and local government web resources and services.